Palmdale, CA (93590)

3:14 AM PDT on August 26, 2016 (GMT -0700)
Bolton Avenue | | Change Station

Elev 2608 ft 34.59 °N, 118.06 °W | Updated 1 minute ago

Clear
Clear
73.9 °F
Feels Like 77 °F
N
0.6
Wind Variable Wind from SSW
Gusts 2.5 mph

Today
High -- | Low -- °F
--% Chance of Precip.
Yesterday
High -- | Low -- °F
Precip. -- in
Pressure 29.82 in
Visibility 10.0 miles
Clouds Clear
Heat Index 77 °F
Dew Point 50 °F
Humidity 43%
Rainfall Not available.
Snow Depth Not available.
6:21 AM 7:25 PM
Waning Crescent, 36% visible
METAR KPMD 260953Z AUTO 20006KT 10SM CLR 19/09 A2991 RMK AO2 SLP098 T01940089
Pressure 29.82 in
Visibility 10.0 miles
Clouds Clear
Heat Index 77 °F
Dew Point 50 °F
Humidity 43%
Rainfall Not available.
Snow Depth Not available.
6:21 AM 7:25 PM
Waning Crescent, 36% visible
METAR KPMD 260953Z AUTO 20006KT 10SM CLR 19/09 A2991 RMK AO2 SLP098 T01940089

10-Day Weather Forecast

Almanac

Astronomy

Aug. 26, 2016 Rise Set
Actual Time
Civil Twilight
Nautical Twilight
Astronomical Twilight
Moon
Length of Visible Light
Length of Day
Tomorrow will be .
, % of the Moon is Illuminated

Today's Extremes

State Highs State Lows

Community

WunderPhotos

Upload Photos

1,935,069 photos uploaded!

WunderBlog® & News

Nearby

Air Quality

  Air Quality AQ Index Pollutant
Not available.

Snow Depth

Station Depth Elevation

Earthquake Activity

City Distance Mag. Time & Date
Minimum magnitude displayed is 2.5.

Coastal Water Temperatures

Place Temperature

Stations

Nearby Weather Stations

Station Location Temp. Windchill Dew Point Humidity Wind Precip. Elev Updated Type
                   

Watches & Warnings

There are currently no watches in effect.